sensor_id;sensor_type;location;lat;lon;timestamp;pressure;altitude;pressure_sealevel;temperature;humidity
7335;BME280;3708;42.632;23.378;2022-12-29T00:00:00;95197.75;;;9.53;54.48
7335;BME280;3708;42.632;23.378;2022-12-29T00:02:28;95209.00;;;9.54;53.90
7335;BME280;3708;42.632;23.378;2022-12-29T00:04:55;95202.53;;;9.65;54.10
7335;BME280;3708;42.632;23.378;2022-12-29T00:07:21;95198.50;;;9.72;53.59
7335;BME280;3708;42.632;23.378;2022-12-29T00:09:48;95200.03;;;9.73;53.28
7335;BME280;3708;42.632;23.378;2022-12-29T00:12:15;95196.25;;;9.66;53.35
7335;BME280;3708;42.632;23.378;2022-12-29T00:14:43;95204.09;;;9.20;53.89
7335;BME280;3708;42.632;23.378;2022-12-29T00:17:28;95197.94;;;9.43;53.50
7335;BME280;3708;42.632;23.378;2022-12-29T00:19:54;95202.19;;;9.39;53.82
7335;BME280;3708;42.632;23.378;2022-12-29T00:22:39;95205.31;;;9.41;53.88
7335;BME280;3708;42.632;23.378;2022-12-29T00:25:24;95201.19;;;9.21;54.24
7335;BME280;3708;42.632;23.378;2022-12-29T00:28:08;95205.47;;;9.31;54.29
7335;BME280;3708;42.632;23.378;2022-12-29T00:30:58;95203.53;;;9.37;54.15
7335;BME280;3708;42.632;23.378;2022-12-29T00:33:43;95201.63;;;9.42;53.86
7335;BME280;3708;42.632;23.378;2022-12-29T00:36:29;95211.28;;;9.28;53.83
7335;BME280;3708;42.632;23.378;2022-12-29T00:39:00;95210.28;;;9.24;54.37
7335;BME280;3708;42.632;23.378;2022-12-29T00:41:45;95204.66;;;9.17;54.63
7335;BME280;3708;42.632;23.378;2022-12-29T00:44:29;95201.00;;;9.18;54.54
7335;BME280;3708;42.632;23.378;2022-12-29T00:46:57;95205.91;;;9.19;54.53
7335;BME280;3708;42.632;23.378;2022-12-29T00:49:27;95210.00;;;9.26;54.83
7335;BME280;3708;42.632;23.378;2022-12-29T00:51:58;95215.44;;;9.29;54.73
7335;BME280;3708;42.632;23.378;2022-12-29T00:54:25;95218.50;;;9.50;54.31
7335;BME280;3708;42.632;23.378;2022-12-29T00:56:52;95210.66;;;9.50;54.19
7335;BME280;3708;42.632;23.378;2022-12-29T00:59:20;95207.66;;;9.56;54.09
7335;BME280;3708;42.632;23.378;2022-12-29T01:01:49;95209.59;;;9.64;53.65
7335;BME280;3708;42.632;23.378;2022-12-29T01:04:19;95208.56;;;9.65;53.50
7335;BME280;3708;42.632;23.378;2022-12-29T01:06:46;95213.69;;;9.70;53.07
7335;BME280;3708;42.632;23.378;2022-12-29T01:09:13;95209.94;;;9.76;53.08
7335;BME280;3708;42.632;23.378;2022-12-29T01:11:58;95204.97;;;9.61;53.04
7335;BME280;3708;42.632;23.378;2022-12-29T01:14:25;95203.19;;;9.43;53.27
7335;BME280;3708;42.632;23.378;2022-12-29T01:16:52;95197.88;;;9.48;53.21
7335;BME280;3708;42.632;23.378;2022-12-29T01:19:21;95202.88;;;9.45;53.42
7335;BME280;3708;42.632;23.378;2022-12-29T01:21:48;95195.25;;;9.48;53.61
7335;BME280;3708;42.632;23.378;2022-12-29T01:24:16;95197.97;;;9.57;53.72
7335;BME280;3708;42.632;23.378;2022-12-29T01:26:44;95194.09;;;9.54;53.23
7335;BME280;3708;42.632;23.378;2022-12-29T01:29:10;95198.31;;;9.37;53.53
7335;BME280;3708;42.632;23.378;2022-12-29T01:31:37;95197.88;;;9.48;53.64
7335;BME280;3708;42.632;23.378;2022-12-29T01:34:04;95195.16;;;9.53;53.15
7335;BME280;3708;42.632;23.378;2022-12-29T01:36:33;95194.44;;;9.34;54.00
7335;BME280;3708;42.632;23.378;2022-12-29T01:38:59;95193.69;;;9.47;53.53
7335;BME280;3708;42.632;23.378;2022-12-29T01:41:26;95187.00;;;9.41;53.67
7335;BME280;3708;42.632;23.378;2022-12-29T01:43:54;95185.34;;;9.45;53.62
7335;BME280;3708;42.632;23.378;2022-12-29T01:46:27;95191.25;;;9.37;53.97
7335;BME280;3708;42.632;23.378;2022-12-29T01:48:59;95187.41;;;9.48;53.95
7335;BME280;3708;42.632;23.378;2022-12-29T01:51:30;95184.19;;;9.51;53.46
7335;BME280;3708;42.632;23.378;2022-12-29T01:54:01;95173.84;;;9.46;53.35
7335;BME280;3708;42.632;23.378;2022-12-29T01:56:29;95171.50;;;9.45;53.58
7335;BME280;3708;42.632;23.378;2022-12-29T01:59:00;95175.00;;;9.40;54.02
7335;BME280;3708;42.632;23.378;2022-12-29T02:01:28;95178.84;;;9.29;54.10
7335;BME280;3708;42.632;23.378;2022-12-29T02:03:55;95178.25;;;9.32;54.16
7335;BME280;3708;42.632;23.378;2022-12-29T02:06:25;95174.47;;;9.25;54.49
7335;BME280;3708;42.632;23.378;2022-12-29T02:08:55;95168.66;;;9.28;54.75
7335;BME280;3708;42.632;23.378;2022-12-29T02:11:25;95165.38;;;9.22;54.67
7335;BME280;3708;42.632;23.378;2022-12-29T02:13:53;95167.25;;;9.35;54.64
7335;BME280;3708;42.632;23.378;2022-12-29T02:16:32;95167.56;;;9.15;55.05
7335;BME280;3708;42.632;23.378;2022-12-29T02:22:13;95167.81;;;9.00;55.63
7335;BME280;3708;42.632;23.378;2022-12-29T02:25:18;95166.53;;;9.16;55.85
7335;BME280;3708;42.632;23.378;2022-12-29T02:27:55;95165.06;;;9.23;55.46
7335;BME280;3708;42.632;23.378;2022-12-29T02:30:46;95168.97;;;9.26;55.56
7335;BME280;3708;42.632;23.378;2022-12-29T02:33:23;95162.72;;;9.08;56.10
7335;BME280;3708;42.632;23.378;2022-12-29T02:35:57;95160.31;;;9.26;55.75
7335;BME280;3708;42.632;23.378;2022-12-29T02:38:41;95153.34;;;9.21;55.52
7335;BME280;3708;42.632;23.378;2022-12-29T02:41:16;95156.88;;;8.98;56.46
7335;BME280;3708;42.632;23.378;2022-12-29T02:43:50;95159.34;;;9.21;55.90
7335;BME280;3708;42.632;23.378;2022-12-29T02:46:27;95156.00;;;9.35;55.40
7335;BME280;3708;42.632;23.378;2022-12-29T02:49:01;95159.72;;;9.15;55.33
7335;BME280;3708;42.632;23.378;2022-12-29T02:51:33;95153.75;;;9.28;55.70
7335;BME280;3708;42.632;23.378;2022-12-29T02:54:03;95149.97;;;9.34;55.21
7335;BME280;3708;42.632;23.378;2022-12-29T02:56:47;95158.50;;;9.26;54.83
7335;BME280;3708;42.632;23.378;2022-12-29T02:59:15;95160.31;;;9.12;54.92
7335;BME280;3708;42.632;23.378;2022-12-29T03:01:59;95153.19;;;8.67;55.84
7335;BME280;3708;42.632;23.378;2022-12-29T03:04:53;95149.47;;;8.86;55.36
7335;BME280;3708;42.632;23.378;2022-12-29T03:07:34;95152.63;;;9.02;55.06
7335;BME280;3708;42.632;23.378;2022-12-29T03:10:14;95156.06;;;9.16;54.88
7335;BME280;3708;42.632;23.378;2022-12-29T03:12:48;95149.28;;;9.15;54.77
7335;BME280;3708;42.632;23.378;2022-12-29T03:15:39;95146.09;;;9.32;54.74
7335;BME280;3708;42.632;23.378;2022-12-29T03:18:34;95150.31;;;9.46;54.16
7335;BME280;3708;42.632;23.378;2022-12-29T03:21:06;95149.72;;;9.49;53.77
7335;BME280;3708;42.632;23.378;2022-12-29T03:23:35;95146.84;;;9.51;53.72
7335;BME280;3708;42.632;23.378;2022-12-29T03:26:06;95147.69;;;9.46;53.59
7335;BME280;3708;42.632;23.378;2022-12-29T03:28:37;95148.03;;;9.26;54.04
7335;BME280;3708;42.632;23.378;2022-12-29T03:31:07;95142.63;;;9.36;54.12
7335;BME280;3708;42.632;23.378;2022-12-29T03:33:36;95142.53;;;9.41;53.88
7335;BME280;3708;42.632;23.378;2022-12-29T03:36:07;95136.75;;;9.44;53.71
7335;BME280;3708;42.632;23.378;2022-12-29T03:38:42;95143.63;;;9.40;53.97
7335;BME280;3708;42.632;23.378;2022-12-29T03:41:13;95148.72;;;9.18;54.04
7335;BME280;3708;42.632;23.378;2022-12-29T03:43:42;95148.22;;;9.16;54.36
7335;BME280;3708;42.632;23.378;2022-12-29T03:46:08;95150.13;;;9.10;54.49
7335;BME280;3708;42.632;23.378;2022-12-29T03:48:36;95151.78;;;9.06;54.81
7335;BME280;3708;42.632;23.378;2022-12-29T03:51:04;95153.72;;;9.14;54.55
7335;BME280;3708;42.632;23.378;2022-12-29T03:53:30;95164.41;;;9.18;54.57
7335;BME280;3708;42.632;23.378;2022-12-29T03:55:57;95156.19;;;8.74;55.12
7335;BME280;3708;42.632;23.378;2022-12-29T03:58:24;95167.81;;;8.49;55.23
7335;BME280;3708;42.632;23.378;2022-12-29T04:00:51;95166.97;;;8.11;55.86
7335;BME280;3708;42.632;23.378;2022-12-29T04:03:17;95165.53;;;8.00;55.82
7335;BME280;3708;42.632;23.378;2022-12-29T04:05:46;95169.28;;;7.70;56.34
7335;BME280;3708;42.632;23.378;2022-12-29T04:08:12;95167.09;;;7.30;58.07
7335;BME280;3708;42.632;23.378;2022-12-29T04:10:39;95173.19;;;7.68;56.95
7335;BME280;3708;42.632;23.378;2022-12-29T04:13:06;95163.19;;;7.80;57.08
7335;BME280;3708;42.632;23.378;2022-12-29T04:15:33;95162.22;;;7.95;56.31
7335;BME280;3708;42.632;23.378;2022-12-29T04:18:00;95164.53;;;7.96;56.08
7335;BME280;3708;42.632;23.378;2022-12-29T04:20:27;95169.22;;;7.99;56.45
7335;BME280;3708;42.632;23.378;2022-12-29T04:23:13;95164.00;;;7.99;56.25
7335;BME280;3708;42.632;23.378;2022-12-29T04:25:40;95167.94;;;8.15;56.59
7335;BME280;3708;42.632;23.378;2022-12-29T04:28:06;95171.75;;;8.04;56.44
7335;BME280;3708;42.632;23.378;2022-12-29T04:30:33;95173.34;;;8.00;56.53
7335;BME280;3708;42.632;23.378;2022-12-29T04:33:00;95171.63;;;8.14;56.29
7335;BME280;3708;42.632;23.378;2022-12-29T04:35:27;95173.44;;;7.95;56.98
7335;BME280;3708;42.632;23.378;2022-12-29T04:37:53;95173.00;;;8.07;56.33
7335;BME280;3708;42.632;23.378;2022-12-29T04:40:22;95171.75;;;8.04;56.43
7335;BME280;3708;42.632;23.378;2022-12-29T04:42:49;95176.63;;;8.11;56.60
7335;BME280;3708;42.632;23.378;2022-12-29T04:45:16;95185.72;;;8.13;56.58
7335;BME280;3708;42.632;23.378;2022-12-29T04:47:43;95187.28;;;8.14;56.81
7335;BME280;3708;42.632;23.378;2022-12-29T04:50:10;95190.06;;;8.23;56.74
7335;BME280;3708;42.632;23.378;2022-12-29T04:52:37;95185.31;;;8.30;56.47
7335;BME280;3708;42.632;23.378;2022-12-29T04:55:05;95189.44;;;8.31;56.55
7335;BME280;3708;42.632;23.378;2022-12-29T04:57:34;95191.72;;;8.37;56.04
7335;BME280;3708;42.632;23.378;2022-12-29T05:00:01;95189.75;;;8.06;55.91
7335;BME280;3708;42.632;23.378;2022-12-29T05:02:28;95194.50;;;7.99;56.31
7335;BME280;3708;42.632;23.378;2022-12-29T05:04:55;95193.38;;;8.05;56.39
7335;BME280;3708;42.632;23.378;2022-12-29T05:07:21;95197.50;;;7.87;57.25
7335;BME280;3708;42.632;23.378;2022-12-29T05:09:48;95195.94;;;8.10;57.12
7335;BME280;3708;42.632;23.378;2022-12-29T05:12:15;95197.47;;;7.92;56.83
7335;BME280;3708;42.632;23.378;2022-12-29T05:14:43;95185.16;;;8.16;56.21
7335;BME280;3708;42.632;23.378;2022-12-29T05:17:10;95197.66;;;8.19;55.88
7335;BME280;3708;42.632;23.378;2022-12-29T05:19:37;95198.91;;;8.22;55.71
7335;BME280;3708;42.632;23.378;2022-12-29T05:22:04;95192.91;;;8.26;56.01
7335;BME280;3708;42.632;23.378;2022-12-29T05:24:31;95195.56;;;8.21;55.31
7335;BME280;3708;42.632;23.378;2022-12-29T05:26:58;95190.53;;;8.06;55.90
7335;BME280;3708;42.632;23.378;2022-12-29T05:29:26;95191.84;;;8.04;56.38
7335;BME280;3708;42.632;23.378;2022-12-29T05:31:54;95191.06;;;8.03;56.37
7335;BME280;3708;42.632;23.378;2022-12-29T05:34:21;95186.63;;;8.04;56.03
7335;BME280;3708;42.632;23.378;2022-12-29T05:36:48;95183.00;;;8.23;56.10
7335;BME280;3708;42.632;23.378;2022-12-29T05:39:15;95200.72;;;8.26;55.95
7335;BME280;3708;42.632;23.378;2022-12-29T05:41:42;95202.72;;;8.34;55.70
7335;BME280;3708;42.632;23.378;2022-12-29T05:44:09;95191.28;;;8.30;55.98
7335;BME280;3708;42.632;23.378;2022-12-29T05:46:36;95198.59;;;8.28;55.81
7335;BME280;3708;42.632;23.378;2022-12-29T05:49:05;95206.50;;;8.23;55.69
7335;BME280;3708;42.632;23.378;2022-12-29T05:51:32;95200.72;;;8.26;55.84
7335;BME280;3708;42.632;23.378;2022-12-29T05:53:59;95208.59;;;8.21;55.76
7335;BME280;3708;42.632;23.378;2022-12-29T05:56:26;95218.44;;;8.29;56.16
7335;BME280;3708;42.632;23.378;2022-12-29T05:58:52;95212.47;;;8.24;55.95
7335;BME280;3708;42.632;23.378;2022-12-29T06:01:19;95212.59;;;8.37;56.35
7335;BME280;3708;42.632;23.378;2022-12-29T06:03:46;95216.50;;;8.16;56.37
7335;BME280;3708;42.632;23.378;2022-12-29T06:06:14;95219.56;;;7.47;59.57
7335;BME280;3708;42.632;23.378;2022-12-29T06:08:41;95220.31;;;7.77;58.52
7335;BME280;3708;42.632;23.378;2022-12-29T06:11:08;95220.94;;;7.92;58.03
7335;BME280;3708;42.632;23.378;2022-12-29T06:13:35;95219.94;;;7.88;59.06
7335;BME280;3708;42.632;23.378;2022-12-29T06:16:02;95227.25;;;8.10;58.91
7335;BME280;3708;42.632;23.378;2022-12-29T06:18:29;95222.84;;;8.34;58.13
7335;BME280;3708;42.632;23.378;2022-12-29T06:20:59;95221.59;;;8.03;58.77
7335;BME280;3708;42.632;23.378;2022-12-29T06:23:27;95224.03;;;8.41;57.64
7335;BME280;3708;42.632;23.378;2022-12-29T06:25:54;95217.47;;;8.20;57.85
7335;BME280;3708;42.632;23.378;2022-12-29T06:28:21;95218.59;;;8.38;58.38
7335;BME280;3708;42.632;23.378;2022-12-29T06:30:48;95223.22;;;8.65;57.51
7335;BME280;3708;42.632;23.378;2022-12-29T06:33:15;95219.72;;;8.69;57.48
7335;BME280;3708;42.632;23.378;2022-12-29T06:35:42;95220.44;;;8.93;56.98
7335;BME280;3708;42.632;23.378;2022-12-29T06:38:11;95220.50;;;9.07;56.90
7335;BME280;3708;42.632;23.378;2022-12-29T06:40:41;95225.38;;;9.13;56.33
7335;BME280;3708;42.632;23.378;2022-12-29T06:43:10;95225.91;;;9.29;56.41
7335;BME280;3708;42.632;23.378;2022-12-29T06:45:38;95224.53;;;9.32;55.89
7335;BME280;3708;42.632;23.378;2022-12-29T06:48:06;95226.72;;;9.43;55.43
7335;BME280;3708;42.632;23.378;2022-12-29T06:50:33;95225.94;;;9.43;55.15
7335;BME280;3708;42.632;23.378;2022-12-29T06:52:59;95226.78;;;9.38;55.32
7335;BME280;3708;42.632;23.378;2022-12-29T06:55:26;95227.56;;;9.39;55.16
7335;BME280;3708;42.632;23.378;2022-12-29T06:57:56;95237.25;;;9.38;54.87
7335;BME280;3708;42.632;23.378;2022-12-29T07:00:23;95236.50;;;9.51;54.57
7335;BME280;3708;42.632;23.378;2022-12-29T07:02:50;95242.94;;;9.59;54.63
7335;BME280;3708;42.632;23.378;2022-12-29T07:05:17;95239.91;;;9.52;54.31
7335;BME280;3708;42.632;23.378;2022-12-29T07:07:44;95250.00;;;9.58;54.42
7335;BME280;3708;42.632;23.378;2022-12-29T07:10:11;95240.63;;;9.71;54.22
7335;BME280;3708;42.632;23.378;2022-12-29T07:12:38;95237.84;;;9.81;54.00
7335;BME280;3708;42.632;23.378;2022-12-29T07:15:07;95235.81;;;9.91;53.96
7335;BME280;3708;42.632;23.378;2022-12-29T07:17:34;95242.97;;;9.72;53.75
7335;BME280;3708;42.632;23.378;2022-12-29T07:20:01;95242.25;;;9.67;53.85
7335;BME280;3708;42.632;23.378;2022-12-29T07:22:28;95234.63;;;9.84;53.88
7335;BME280;3708;42.632;23.378;2022-12-29T07:24:55;95235.81;;;9.91;53.96
7335;BME280;3708;42.632;23.378;2022-12-29T07:27:22;95226.88;;;9.92;53.44
7335;BME280;3708;42.632;23.378;2022-12-29T07:29:49;95236.88;;;9.90;53.56
7335;BME280;3708;42.632;23.378;2022-12-29T07:32:17;95231.53;;;9.95;53.56
7335;BME280;3708;42.632;23.378;2022-12-29T07:34:44;95240.38;;;9.99;53.29
7335;BME280;3708;42.632;23.378;2022-12-29T07:37:14;95237.56;;;10.10;53.37
7335;BME280;3708;42.632;23.378;2022-12-29T07:39:42;95231.38;;;10.19;52.92
7335;BME280;3708;42.632;23.378;2022-12-29T07:42:10;95238.94;;;10.21;53.06
7335;BME280;3708;42.632;23.378;2022-12-29T07:44:37;95236.63;;;10.19;53.12
7335;BME280;3708;42.632;23.378;2022-12-29T07:47:04;95233.53;;;10.31;53.10
7335;BME280;3708;42.632;23.378;2022-12-29T07:49:32;95229.25;;;10.35;53.11
7335;BME280;3708;42.632;23.378;2022-12-29T07:51:59;95248.44;;;10.44;52.69
7335;BME280;3708;42.632;23.378;2022-12-29T07:54:25;95244.34;;;10.51;52.60
7335;BME280;3708;42.632;23.378;2022-12-29T07:56:52;95240.25;;;10.59;52.16
7335;BME280;3708;42.632;23.378;2022-12-29T07:59:19;95251.91;;;10.53;51.92
7335;BME280;3708;42.632;23.378;2022-12-29T08:01:46;95241.25;;;10.36;52.50
7335;BME280;3708;42.632;23.378;2022-12-29T08:04:15;95248.25;;;10.54;52.74
7335;BME280;3708;42.632;23.378;2022-12-29T08:06:43;95248.59;;;10.61;52.20
7335;BME280;3708;42.632;23.378;2022-12-29T08:09:11;95253.38;;;10.32;52.08
7335;BME280;3708;42.632;23.378;2022-12-29T08:11:38;95256.50;;;10.34;52.21
7335;BME280;3708;42.632;23.378;2022-12-29T08:14:05;95256.38;;;10.52;52.23
7335;BME280;3708;42.632;23.378;2022-12-29T08:16:32;95257.13;;;9.98;52.79
7335;BME280;3708;42.632;23.378;2022-12-29T08:18:59;95247.50;;;9.67;53.70
7335;BME280;3708;42.632;23.378;2022-12-29T08:21:27;95258.50;;;9.50;54.42
7335;BME280;3708;42.632;23.378;2022-12-29T08:23:56;95253.06;;;9.79;54.05
7335;BME280;3708;42.632;23.378;2022-12-29T08:26:24;95251.50;;;9.91;54.18
7335;BME280;3708;42.632;23.378;2022-12-29T08:28:52;95250.75;;;10.18;53.43
7335;BME280;3708;42.632;23.378;2022-12-29T08:31:18;95247.09;;;10.33;53.25
7335;BME280;3708;42.632;23.378;2022-12-29T08:33:45;95246.47;;;10.63;52.86
7335;BME280;3708;42.632;23.378;2022-12-29T08:36:12;95251.50;;;10.73;52.34
7335;BME280;3708;42.632;23.378;2022-12-29T08:38:39;95241.34;;;10.94;51.87
7335;BME280;3708;42.632;23.378;2022-12-29T08:41:07;95246.81;;;10.84;51.69
7335;BME280;3708;42.632;23.378;2022-12-29T08:43:34;95240.59;;;10.93;51.61
7335;BME280;3708;42.632;23.378;2022-12-29T08:46:01;95235.34;;;10.93;51.28
7335;BME280;3708;42.632;23.378;2022-12-29T08:48:28;95247.03;;;11.09;51.09
7335;BME280;3708;42.632;23.378;2022-12-29T08:50:55;95248.81;;;11.22;51.05
7335;BME280;3708;42.632;23.378;2022-12-29T08:53:22;95241.59;;;11.06;50.86
7335;BME280;3708;42.632;23.378;2022-12-29T08:55:55;95246.31;;;11.17;50.85
7335;BME280;3708;42.632;23.378;2022-12-29T08:58:24;95249.78;;;11.26;50.54
7335;BME280;3708;42.632;23.378;2022-12-29T09:00:52;95235.34;;;10.93;50.87
7335;BME280;3708;42.632;23.378;2022-12-29T09:03:19;95242.50;;;11.01;51.03
7335;BME280;3708;42.632;23.378;2022-12-29T09:05:47;95238.75;;;11.16;51.21
7335;BME280;3708;42.632;23.378;2022-12-29T09:08:14;95236.66;;;11.48;50.59
7335;BME280;3708;42.632;23.378;2022-12-29T09:10:41;95229.47;;;11.63;50.09
7335;BME280;3708;42.632;23.378;2022-12-29T09:13:08;95229.00;;;11.61;49.68
7335;BME280;3708;42.632;23.378;2022-12-29T09:15:36;95226.56;;;10.62;51.97
7335;BME280;3708;42.632;23.378;2022-12-29T09:18:03;95218.16;;;10.51;52.04
7335;BME280;3708;42.632;23.378;2022-12-29T09:20:30;95221.66;;;10.83;51.96
7335;BME280;3708;42.632;23.378;2022-12-29T09:22:57;95219.81;;;10.83;52.01
7335;BME280;3708;42.632;23.378;2022-12-29T09:25:24;95217.38;;;10.37;52.69
7335;BME280;3708;42.632;23.378;2022-12-29T09:27:51;95222.25;;;10.30;52.86
7335;BME280;3708;42.632;23.378;2022-12-29T09:30:20;95215.00;;;10.77;52.08
7335;BME280;3708;42.632;23.378;2022-12-29T09:32:49;95217.06;;;11.02;51.42
7335;BME280;3708;42.632;23.378;2022-12-29T09:35:16;95210.31;;;11.09;50.81
7335;BME280;3708;42.632;23.378;2022-12-29T09:37:43;95216.34;;;10.74;51.62
7335;BME280;3708;42.632;23.378;2022-12-29T09:40:22;95215.88;;;10.72;51.54
7335;BME280;3708;42.632;23.378;2022-12-29T09:43:00;95203.88;;;11.37;50.70
7335;BME280;3708;42.632;23.378;2022-12-29T09:45:32;95203.03;;;11.50;50.09
7335;BME280;3708;42.632;23.378;2022-12-29T09:48:03;95206.28;;;11.56;49.72
7335;BME280;3708;42.632;23.378;2022-12-29T09:50:32;95200.63;;;11.93;49.34
7335;BME280;3708;42.632;23.378;2022-12-29T09:53:05;95192.00;;;12.01;48.77
7335;BME280;3708;42.632;23.378;2022-12-29T09:55:39;95195.88;;;12.04;48.09
7335;BME280;3708;42.632;23.378;2022-12-29T09:58:12;95193.00;;;12.22;47.77
7335;BME280;3708;42.632;23.378;2022-12-29T10:00:49;95191.69;;;11.41;49.60
7335;BME280;3708;42.632;23.378;2022-12-29T10:03:45;95177.38;;;11.70;48.65
7335;BME280;3708;42.632;23.378;2022-12-29T10:06:25;95191.72;;;11.19;50.09
7335;BME280;3708;42.632;23.378;2022-12-29T10:09:15;95179.00;;;11.35;49.98
7335;BME280;3708;42.632;23.378;2022-12-29T10:12:06;95162.53;;;12.13;48.62
7335;BME280;3708;42.632;23.378;2022-12-29T10:15:04;95171.88;;;12.53;47.20
7335;BME280;3708;42.632;23.378;2022-12-29T10:21:25;95166.47;;;12.67;47.22
7335;BME280;3708;42.632;23.378;2022-12-29T10:24:07;95162.59;;;13.24;46.25
7335;BME280;3708;42.632;23.378;2022-12-29T10:27:10;95165.00;;;13.55;45.83
7335;BME280;3708;42.632;23.378;2022-12-29T10:30:12;95162.38;;;13.55;44.79
7335;BME280;3708;42.632;23.378;2022-12-29T10:33:05;95166.31;;;13.78;50.62
7335;BME280;3708;42.632;23.378;2022-12-29T10:41:08;95160.09;;;15.11;41.94
7335;BME280;3708;42.632;23.378;2022-12-29T10:43:44;95152.19;;;14.70;41.88
7335;BME280;3708;42.632;23.378;2022-12-29T10:49:20;95140.47;;;14.80;41.78
7335;BME280;3708;42.632;23.378;2022-12-29T10:54:54;95135.03;;;15.17;41.09
7335;BME280;3708;42.632;23.378;2022-12-29T11:24:54;95103.13;;;15.55;40.06
7335;BME280;3708;42.632;23.378;2022-12-29T11:27:55;95099.84;;;15.70;40.56
7335;BME280;3708;42.632;23.378;2022-12-29T11:30:24;95091.91;;;16.19;39.42
7335;BME280;3708;42.632;23.378;2022-12-29T11:32:52;95091.88;;;16.31;39.09
7335;BME280;3708;42.632;23.378;2022-12-29T11:35:31;95096.03;;;16.44;38.81
7335;BME280;3708;42.632;23.378;2022-12-29T11:38:00;95103.00;;;16.76;38.54
7335;BME280;3708;42.632;23.378;2022-12-29T11:40:29;95087.91;;;16.76;38.00
7335;BME280;3708;42.632;23.378;2022-12-29T11:42:58;95086.28;;;16.72;38.30
7335;BME280;3708;42.632;23.378;2022-12-29T11:45:30;95088.28;;;16.63;38.17
7335;BME280;3708;42.632;23.378;2022-12-29T11:48:00;95092.84;;;16.62;38.25
7335;BME280;3708;42.632;23.378;2022-12-29T11:50:34;95092.00;;;16.74;38.32
7335;BME280;3708;42.632;23.378;2022-12-29T11:53:04;95081.25;;;17.10;37.67
7335;BME280;3708;42.632;23.378;2022-12-29T11:55:34;95082.72;;;17.23;37.58
7335;BME280;3708;42.632;23.378;2022-12-29T11:58:02;95081.19;;;17.22;36.95
7335;BME280;3708;42.632;23.378;2022-12-29T12:00:32;95081.09;;;17.19;37.12
7335;BME280;3708;42.632;23.378;2022-12-29T12:03:03;95085.78;;;16.82;37.87
7335;BME280;3708;42.632;23.378;2022-12-29T12:05:37;95080.03;;;17.35;37.25
7335;BME280;3708;42.632;23.378;2022-12-29T12:08:11;95081.97;;;17.38;37.12
7335;BME280;3708;42.632;23.378;2022-12-29T12:10:46;95083.66;;;17.90;36.60
7335;BME280;3708;42.632;23.378;2022-12-29T12:13:19;95074.44;;;18.03;36.10
7335;BME280;3708;42.632;23.378;2022-12-29T12:15:51;95070.13;;;18.29;35.78
7335;BME280;3708;42.632;23.378;2022-12-29T12:18:30;95074.59;;;18.60;35.19
7335;BME280;3708;42.632;23.378;2022-12-29T12:21:05;95069.13;;;18.72;35.02
7335;BME280;3708;42.632;23.378;2022-12-29T12:23:44;95068.22;;;18.84;35.08
7335;BME280;3708;42.632;23.378;2022-12-29T12:26:20;95066.47;;;18.72;34.50
7335;BME280;3708;42.632;23.378;2022-12-29T12:28:51;95070.69;;;18.73;34.67
7335;BME280;3708;42.632;23.378;2022-12-29T12:31:29;95067.25;;;18.54;34.95
7335;BME280;3708;42.632;23.378;2022-12-29T12:34:04;95059.44;;;18.61;35.00
7335;BME280;3708;42.632;23.378;2022-12-29T12:36:51;95058.78;;;18.48;35.15
7335;BME280;3708;42.632;23.378;2022-12-29T12:39:25;95054.59;;;18.47;35.39
7335;BME280;3708;42.632;23.378;2022-12-29T12:42:04;95059.69;;;18.94;34.67
7335;BME280;3708;42.632;23.378;2022-12-29T12:44:41;95061.94;;;19.34;34.20
7335;BME280;3708;42.632;23.378;2022-12-29T12:47:33;95057.00;;;19.55;33.59
7335;BME280;3708;42.632;23.378;2022-12-29T12:50:16;95055.75;;;19.71;33.51
7335;BME280;3708;42.632;23.378;2022-12-29T12:53:04;95049.25;;;19.95;33.16
7335;BME280;3708;42.632;23.378;2022-12-29T12:55:52;95046.19;;;20.19;32.77
7335;BME280;3708;42.632;23.378;2022-12-29T12:58:29;95048.81;;;20.16;32.91
7335;BME280;3708;42.632;23.378;2022-12-29T13:01:14;95044.16;;;20.09;32.83
7335;BME280;3708;42.632;23.378;2022-12-29T13:03:54;95061.75;;;20.43;32.40
7335;BME280;3708;42.632;23.378;2022-12-29T13:06:35;95059.03;;;20.70;32.00
7335;BME280;3708;42.632;23.378;2022-12-29T13:09:18;95053.16;;;20.87;31.87
7335;BME280;3708;42.632;23.378;2022-12-29T13:12:00;95057.59;;;20.76;31.87
7335;BME280;3708;42.632;23.378;2022-12-29T13:14:39;95044.19;;;20.69;31.61
7335;BME280;3708;42.632;23.378;2022-12-29T13:17:17;95048.03;;;20.15;32.29
7335;BME280;3708;42.632;23.378;2022-12-29T13:19:50;95048.34;;;20.36;32.51
7335;BME280;3708;42.632;23.378;2022-12-29T13:22:23;95053.81;;;20.47;32.31
7335;BME280;3708;42.632;23.378;2022-12-29T13:25:07;95063.88;;;20.61;31.95
7335;BME280;3708;42.632;23.378;2022-12-29T13:27:44;95056.53;;;20.84;31.75
7335;BME280;3708;42.632;23.378;2022-12-29T13:30:17;95065.25;;;20.81;31.90
7335;BME280;3708;42.632;23.378;2022-12-29T13:32:55;95069.91;;;20.87;31.55
7335;BME280;3708;42.632;23.378;2022-12-29T13:35:34;95060.38;;;20.90;31.52
7335;BME280;3708;42.632;23.378;2022-12-29T13:38:11;95060.16;;;21.02;31.38
7335;BME280;3708;42.632;23.378;2022-12-29T13:40:43;95056.47;;;21.10;31.29
7335;BME280;3708;42.632;23.378;2022-12-29T13:43:12;95066.03;;;21.14;31.17
7335;BME280;3708;42.632;23.378;2022-12-29T13:45:42;95068.00;;;21.21;30.97
7335;BME280;3708;42.632;23.378;2022-12-29T13:48:15;95065.84;;;21.37;30.83
7335;BME280;3708;42.632;23.378;2022-12-29T13:50:48;95063.53;;;21.32;30.81
7335;BME280;3708;42.632;23.378;2022-12-29T13:53:23;95057.75;;;21.23;30.86
7335;BME280;3708;42.632;23.378;2022-12-29T13:55:56;95070.94;;;20.79;31.39
7335;BME280;3708;42.632;23.378;2022-12-29T13:58:30;95066.97;;;20.36;31.87
7335;BME280;3708;42.632;23.378;2022-12-29T14:01:03;95060.72;;;19.73;32.96
7335;BME280;3708;42.632;23.378;2022-12-29T14:03:45;95066.50;;;19.14;34.04
7335;BME280;3708;42.632;23.378;2022-12-29T14:06:22;95061.47;;;18.33;35.53
7335;BME280;3708;42.632;23.378;2022-12-29T14:08:52;95068.06;;;17.88;36.07
7335;BME280;3708;42.632;23.378;2022-12-29T14:11:21;95075.00;;;17.46;37.01
7335;BME280;3708;42.632;23.378;2022-12-29T14:13:50;95065.22;;;17.19;37.71
7335;BME280;3708;42.632;23.378;2022-12-29T14:16:30;95075.41;;;16.89;38.14
7335;BME280;3708;42.632;23.378;2022-12-29T14:19:05;95075.59;;;16.68;38.49
7335;BME280;3708;42.632;23.378;2022-12-29T14:21:34;95073.22;;;16.39;39.32
7335;BME280;3708;42.632;23.378;2022-12-29T14:24:38;95075.47;;;16.13;39.70
7335;BME280;3708;42.632;23.378;2022-12-29T14:33:14;95092.44;;;15.07;41.86